createdAt,value
2018-02-18T00:28:32.224Z,2.40
2018-02-18T00:31:00.559Z,2.40
2018-02-18T00:57:30.070Z,2.40
2018-02-18T00:59:58.327Z,2.40
2018-02-18T01:59:28.451Z,2.00
2018-02-18T02:01:56.702Z,2.10
2018-02-18T02:04:24.964Z,2.00
2018-02-18T02:06:53.253Z,2.00
2018-02-18T02:09:22.277Z,1.90
2018-02-18T02:11:51.295Z,2.00
2018-02-18T02:14:19.603Z,2.00
2018-02-18T02:16:47.843Z,2.00
2018-02-18T02:19:16.126Z,2.30
2018-02-18T02:21:44.535Z,2.20
2018-02-18T02:24:12.812Z,2.00
2018-02-18T02:26:41.079Z,1.90
2018-02-18T02:29:09.389Z,1.90
2018-02-18T02:31:38.453Z,2.00
2018-02-18T02:34:06.728Z,2.00
2018-02-18T02:36:35.022Z,1.90
2018-02-18T02:39:03.286Z,2.00
2018-02-18T02:41:31.530Z,1.90
2018-02-18T02:43:59.848Z,2.00
2018-02-18T02:46:28.148Z,1.80
2018-02-18T03:34:02.008Z,1.90
2018-02-18T03:36:30.310Z,1.80
2018-02-18T03:38:58.553Z,1.80
2018-02-18T03:41:26.839Z,1.70
2018-02-18T03:43:55.156Z,1.70
2018-02-18T03:46:24.192Z,1.80
2018-02-18T03:48:52.490Z,1.70
2018-02-18T03:51:20.771Z,1.60
2018-02-18T03:53:49.003Z,1.60
2018-02-18T03:56:17.276Z,1.60
2018-02-18T03:58:45.515Z,1.70
2018-02-18T04:01:13.776Z,1.60
2018-02-18T04:21:50.211Z,1.60
2018-02-18T04:24:18.452Z,1.60
2018-02-18T04:26:48.534Z,1.50
2018-02-18T04:29:16.796Z,1.60
2018-02-18T04:52:43.212Z,1.50
2018-02-18T05:01:12.742Z,1.50
2018-02-18T05:03:41.011Z,1.50
2018-02-18T05:44:57.997Z,1.40
2018-02-18T05:47:26.298Z,1.30
2018-02-18T05:55:54.766Z,1.20
2018-02-18T05:58:23.010Z,1.20
2018-02-18T06:00:51.444Z,1.20
2018-02-18T06:21:22.314Z,1.30
2018-02-18T06:23:51.358Z,1.50
2018-02-18T06:26:19.616Z,1.50
2018-02-18T06:28:47.934Z,1.80
2018-02-18T06:52:16.368Z,1.50
2018-02-18T07:36:46.666Z,2.90
2018-02-18T07:39:14.921Z,2.90
2018-02-18T08:48:43.090Z,3.20
2018-02-18T08:51:11.543Z,3.90
2018-02-18T08:53:39.789Z,3.90
2018-02-18T08:56:08.236Z,4.10
2018-02-18T08:58:37.238Z,3.20
2018-02-18T09:01:05.601Z,3.20
2018-02-18T09:03:33.968Z,2.40
2018-02-18T09:06:03.030Z,2.20
2018-02-18T09:08:31.367Z,2.20
2018-02-18T09:10:59.632Z,2.30
2018-02-18T09:13:27.904Z,2.20
2018-02-18T09:15:56.291Z,2.10
2018-02-18T09:18:24.642Z,3.00
2018-02-18T09:20:53.667Z,2.90
2018-02-18T09:23:22.051Z,2.90
2018-02-18T09:25:50.519Z,3.00
2018-02-18T09:28:18.811Z,2.40
2018-02-18T09:30:47.065Z,3.00
2018-02-18T09:33:15.310Z,3.40
2018-02-18T09:35:44.388Z,3.00
2018-02-18T09:38:12.639Z,3.00
2018-02-18T09:40:40.955Z,3.40
2018-02-18T09:43:09.277Z,4.70
2018-02-18T09:45:37.551Z,4.30
2018-02-18T09:48:05.815Z,3.90
2018-02-18T09:50:34.120Z,3.90
2018-02-18T09:53:02.426Z,2.50
2018-02-18T09:55:30.757Z,2.90
2018-02-18T09:57:59.008Z,3.40
2018-02-18T10:00:28.032Z,3.80
2018-02-18T10:02:56.342Z,3.70
2018-02-18T10:05:24.611Z,3.80
2018-02-18T10:07:52.980Z,4.00
2018-02-18T10:10:21.214Z,3.90
2018-02-18T10:12:49.898Z,4.20
2018-02-18T10:15:18.194Z,4.20
2018-02-18T10:17:46.465Z,4.20
2018-02-18T10:20:14.814Z,3.40
2018-02-18T10:22:43.839Z,3.00
2018-02-18T10:25:12.162Z,3.00
2018-02-18T10:27:40.533Z,3.30
2018-02-18T10:30:08.878Z,3.20
2018-02-18T10:32:37.213Z,3.40
2018-02-18T10:35:06.374Z,3.20
2018-02-18T10:37:34.672Z,3.20
2018-02-18T10:40:04.146Z,2.80
2018-02-18T10:42:32.397Z,2.80
2018-02-18T10:45:00.663Z,2.90
2018-02-18T10:47:29.084Z,2.80
2018-02-18T10:49:57.333Z,2.80
2018-02-18T10:52:25.728Z,2.50
2018-02-18T10:54:54.148Z,2.30
2018-02-18T10:57:22.399Z,2.40
2018-02-18T10:59:50.638Z,2.30
2018-02-18T11:02:18.972Z,2.40
2018-02-18T11:04:47.211Z,2.40
2018-02-18T11:07:15.456Z,2.60
2018-02-18T11:09:43.801Z,2.50
2018-02-18T11:12:12.858Z,2.40
2018-02-18T11:14:41.104Z,2.40
2018-02-18T11:17:09.721Z,2.60
2018-02-18T11:19:37.994Z,2.60
2018-02-18T11:22:06.254Z,2.80
2018-02-18T11:24:34.534Z,2.50
2018-02-18T11:27:02.781Z,2.90
2018-02-18T11:29:31.010Z,3.00
2018-02-18T11:31:59.346Z,3.20
2018-02-18T11:34:27.602Z,3.30
2018-02-18T11:36:55.976Z,3.60
2018-02-18T11:39:25.010Z,2.90
2018-02-18T11:41:54.571Z,2.90
2018-02-18T11:44:23.584Z,2.90
2018-02-18T11:46:51.919Z,2.90
2018-02-18T11:49:20.185Z,2.90
2018-02-18T11:51:48.458Z,3.10
2018-02-18T11:54:16.776Z,3.20
2018-02-18T11:56:45.112Z,3.00
2018-02-18T11:59:13.562Z,2.80
2018-02-18T12:01:41.846Z,3.30
2018-02-18T12:04:10.177Z,3.40
2018-02-18T12:06:38.677Z,3.70
2018-02-18T12:09:07.147Z,4.00
2018-02-18T12:11:35.737Z,4.20
2018-02-18T12:14:04.012Z,4.20
2018-02-18T12:16:32.369Z,4.00
2018-02-18T12:19:00.721Z,4.10
2018-02-18T12:21:28.966Z,4.40
2018-02-18T12:23:58.036Z,3.00
2018-02-18T12:26:26.283Z,3.00
2018-02-18T12:28:54.586Z,3.10
2018-02-18T12:31:23.731Z,3.10
2018-02-18T12:33:52.322Z,3.40
2018-02-18T12:36:20.700Z,3.30
2018-02-18T12:38:49.866Z,3.40
2018-02-18T12:41:18.126Z,3.50
2018-02-18T12:43:46.440Z,3.90
2018-02-18T12:46:14.823Z,4.20
2018-02-18T12:48:43.144Z,4.10
2018-02-18T12:51:12.224Z,4.00
2018-02-18T12:53:40.542Z,4.00
2018-02-18T12:56:08.941Z,4.10
2018-02-18T12:58:37.273Z,4.10
2018-02-18T13:01:06.417Z,3.70
2018-02-18T13:03:35.088Z,3.70
2018-02-18T13:06:03.304Z,3.60
2018-02-18T13:08:31.625Z,4.40
2018-02-18T13:10:59.891Z,4.70
2018-02-18T13:13:28.386Z,4.90
2018-02-18T13:15:56.714Z,5.10
2018-02-18T13:18:25.041Z,5.20
2018-02-18T13:20:53.327Z,4.90
2018-02-18T13:23:21.730Z,4.80
2018-02-18T13:25:50.090Z,4.70
2018-02-18T13:28:18.350Z,4.90
2018-02-18T13:30:46.804Z,4.60
2018-02-18T13:33:15.063Z,5.20
2018-02-18T13:35:44.098Z,4.70
2018-02-18T13:38:12.614Z,4.70
2018-02-18T13:40:41.028Z,5.30
2018-02-18T13:43:10.167Z,6.00
2018-02-18T13:45:38.445Z,6.00
2018-02-18T13:48:06.704Z,6.10
2018-02-18T13:50:34.955Z,5.70
2018-02-18T13:53:04.187Z,6.20
2018-02-18T13:55:32.433Z,6.20
2018-02-18T13:58:00.680Z,6.20
2018-02-18T14:00:28.954Z,6.30
2018-02-18T14:02:57.200Z,6.70
2018-02-18T14:05:25.446Z,6.40
2018-02-18T14:07:53.756Z,6.70
2018-02-18T14:10:22.040Z,6.50
2018-02-18T14:12:50.518Z,6.60
2018-02-18T14:15:18.840Z,6.60
2018-02-18T14:17:47.142Z,6.90
2018-02-18T14:20:15.572Z,7.20
2018-02-18T14:22:43.858Z,7.40
2018-02-18T14:25:12.212Z,7.50
2018-02-18T14:27:40.496Z,7.50
2018-02-18T14:30:09.578Z,7.00
2018-02-18T14:32:38.174Z,7.00
2018-02-18T14:35:07.222Z,7.10
2018-02-18T14:37:35.469Z,7.20
2018-02-18T14:40:03.949Z,7.30
2018-02-18T14:42:51.328Z,7.60
2018-02-18T14:45:37.446Z,7.60
2018-02-18T14:48:23.739Z,8.10
2018-02-18T14:51:09.874Z,8.40
2018-02-18T14:53:56.283Z,8.60
2018-02-18T15:10:04.638Z,9.50
2018-02-18T15:12:32.946Z,9.70
2018-02-18T15:15:01.217Z,9.80
2018-02-18T15:17:30.270Z,10.00
2018-02-18T15:19:58.532Z,10.00
2018-02-18T15:22:26.846Z,10.00
2018-02-18T15:24:55.877Z,10.20
2018-02-18T15:27:24.145Z,10.20
2018-02-18T15:29:52.740Z,10.20
2018-02-18T15:32:21.082Z,10.10
2018-02-18T15:34:49.481Z,10.10
2018-02-18T15:37:17.855Z,10.10
2018-02-18T15:39:46.235Z,10.20
2018-02-18T15:42:14.555Z,10.20
2018-02-18T15:44:43.031Z,10.20
2018-02-18T15:47:11.396Z,10.00
2018-02-18T15:49:39.756Z,10.20
2018-02-18T15:52:08.040Z,10.20
2018-02-18T15:54:36.355Z,10.10
2018-02-18T15:57:04.845Z,10.10
2018-02-18T15:59:33.199Z,10.20
2018-02-18T16:02:01.594Z,10.30
2018-02-18T16:04:30.001Z,10.30
2018-02-18T16:06:59.007Z,10.30
2018-02-18T16:09:27.488Z,10.30
2018-02-18T16:11:55.828Z,10.30
2018-02-18T16:14:24.071Z,10.20
2018-02-18T16:16:52.800Z,10.30
2018-02-18T16:19:21.061Z,10.30
2018-02-18T16:21:50.483Z,10.30
2018-02-18T16:24:18.981Z,10.30
2018-02-18T16:26:47.824Z,10.00
2018-02-18T16:29:16.614Z,9.80
2018-02-18T16:31:45.968Z,9.30
2018-02-18T16:34:14.395Z,9.00
2018-02-18T16:36:42.726Z,9.00
2018-02-18T16:39:11.698Z,9.50
2018-02-18T16:41:40.034Z,9.20
2018-02-18T16:44:09.293Z,9.00
2018-02-18T16:46:37.653Z,9.00
2018-02-18T16:49:06.526Z,8.80
2018-02-18T16:51:38.324Z,8.70
2018-02-18T16:54:07.224Z,8.70
2018-02-18T16:56:35.533Z,7.60
2018-02-18T16:59:04.006Z,8.40
2018-02-18T17:01:32.375Z,7.90
2018-02-18T17:04:00.631Z,7.60
2018-02-18T17:06:28.919Z,7.80
2018-02-18T17:08:57.173Z,8.20
2018-02-18T17:11:27.518Z,8.00
2018-02-18T17:13:56.406Z,8.00
2018-02-18T17:16:24.981Z,7.70
2018-02-18T17:18:55.283Z,7.40
2018-02-18T17:21:23.940Z,7.20
2018-02-18T17:23:53.140Z,7.30
2018-02-18T17:26:21.405Z,7.30
2018-02-18T17:28:49.851Z,7.80
2018-02-18T17:31:18.198Z,8.00
2018-02-18T17:33:46.760Z,8.20
2018-02-18T17:36:15.142Z,7.80
2018-02-18T17:38:43.482Z,7.40
2018-02-18T17:41:11.770Z,6.70
2018-02-18T17:43:40.107Z,6.30
2018-02-18T17:46:08.468Z,6.80
2018-02-18T17:48:36.895Z,7.20
2018-02-18T17:51:05.228Z,7.30
2018-02-18T17:53:34.445Z,7.10
2018-02-18T17:56:03.710Z,7.20
2018-02-18T17:58:32.210Z,7.10
2018-02-18T18:01:00.701Z,7.40
2018-02-18T18:03:29.172Z,7.40
2018-02-18T18:05:57.695Z,7.30
2018-02-18T18:08:26.069Z,7.10
2018-02-18T18:10:54.443Z,7.30
2018-02-18T18:13:22.805Z,7.40
2018-02-18T18:15:51.973Z,5.40
2018-02-18T18:18:21.108Z,5.60
2018-02-18T18:20:49.451Z,5.60
2018-02-18T18:23:17.901Z,5.30
2018-02-18T18:25:46.539Z,6.50
2018-02-18T18:28:14.953Z,6.60
2018-02-18T18:30:43.362Z,6.40
2018-02-18T18:33:12.109Z,6.30
2018-02-18T18:35:40.781Z,6.50
2018-02-18T18:38:09.342Z,6.30
2018-02-18T18:40:37.715Z,6.40
2018-02-18T18:43:06.187Z,6.50
2018-02-18T18:45:34.585Z,6.50
2018-02-18T18:48:03.882Z,6.50
2018-02-18T18:50:32.393Z,6.40
2018-02-18T18:53:01.473Z,6.20
2018-02-18T18:55:30.152Z,6.20
2018-02-18T18:57:58.684Z,6.30
2018-02-18T19:00:27.086Z,6.20
2018-02-18T19:02:55.513Z,5.80
2018-02-18T19:05:23.823Z,5.40
2018-02-18T19:07:52.327Z,4.90
2018-02-18T19:10:21.529Z,4.30
2018-02-18T19:12:49.934Z,4.30
2018-02-18T19:15:18.405Z,4.70
2018-02-18T19:17:46.849Z,5.20
2018-02-18T19:20:16.031Z,5.60
2018-02-18T19:22:44.933Z,5.50
2018-02-18T19:25:14.407Z,5.30
2018-02-18T19:27:42.708Z,5.30
2018-02-18T19:30:11.781Z,4.40
2018-02-18T19:32:40.126Z,4.40
2018-02-18T19:35:08.466Z,4.20
2018-02-18T19:37:37.581Z,4.90
2018-02-18T19:40:06.272Z,4.90
2018-02-18T19:42:34.663Z,4.70
2018-02-18T19:45:03.014Z,4.20
2018-02-18T19:47:31.542Z,4.20
2018-02-18T19:49:59.845Z,4.80
2018-02-18T19:52:28.145Z,5.10
2018-02-18T19:54:57.273Z,4.90
2018-02-18T19:57:25.550Z,4.90
2018-02-18T19:59:53.959Z,5.20
2018-02-18T20:02:23.215Z,5.20
2018-02-18T20:04:51.531Z,5.20
2018-02-18T20:07:19.805Z,5.20
2018-02-18T20:09:51.469Z,5.10
2018-02-18T20:12:36.107Z,5.30
2018-02-18T20:15:04.672Z,5.30
2018-02-18T20:17:33.266Z,5.20
2018-02-18T20:20:01.641Z,4.90
2018-02-18T20:22:30.008Z,5.00
2018-02-18T20:24:58.379Z,4.90
2018-02-18T20:27:26.969Z,4.60
2018-02-18T20:29:55.257Z,4.60
2018-02-18T20:32:23.671Z,4.60
2018-02-18T20:34:52.098Z,4.50
2018-02-18T20:37:20.449Z,4.40
2018-02-18T20:39:49.664Z,4.10
2018-02-18T20:42:17.975Z,4.00
2018-02-18T20:44:46.240Z,4.00
2018-02-18T20:47:14.618Z,4.50
2018-02-18T20:49:42.915Z,4.30
2018-02-18T20:52:11.214Z,4.20
2018-02-18T20:54:39.618Z,4.00
2018-02-18T20:57:08.040Z,3.90
2018-02-18T20:59:36.467Z,4.00
2018-02-18T21:02:05.583Z,4.30
2018-02-18T21:04:33.908Z,4.30
2018-02-18T21:07:02.270Z,4.60
2018-02-18T21:09:30.725Z,4.30
2018-02-18T21:11:59.070Z,3.90
2018-02-18T21:14:27.499Z,3.90
2018-02-18T21:16:55.849Z,3.80
2018-02-18T21:19:24.175Z,4.00
2018-02-18T21:21:52.584Z,4.20
2018-02-18T21:24:20.947Z,4.10
2018-02-18T21:26:49.240Z,3.90
2018-02-18T21:29:17.660Z,3.80
2018-02-18T21:31:45.986Z,3.80
2018-02-18T21:34:14.271Z,3.80
2018-02-18T21:36:43.353Z,3.70
2018-02-18T21:39:11.711Z,3.70
2018-02-18T21:41:40.015Z,3.40
2018-02-18T21:44:08.306Z,3.90
2018-02-18T21:46:37.394Z,4.30
2018-02-18T21:49:05.795Z,4.30
2018-02-18T21:51:34.101Z,4.60
2018-02-18T21:54:02.518Z,4.30
2018-02-18T21:56:30.804Z,4.20
2018-02-18T21:58:59.987Z,4.00
2018-02-18T22:01:29.281Z,4.00
2018-02-18T22:03:57.661Z,3.90
2018-02-18T22:06:26.157Z,4.10
2018-02-18T22:08:54.586Z,4.10
2018-02-18T22:11:22.876Z,4.20
2018-02-18T22:13:51.160Z,4.10
2018-02-18T22:16:19.506Z,3.10
2018-02-18T22:18:47.828Z,3.20
2018-02-18T22:21:16.159Z,3.40
2018-02-18T22:23:44.446Z,3.70
2018-02-18T22:26:12.752Z,3.40
2018-02-18T22:28:41.043Z,3.30
2018-02-18T22:31:10.314Z,2.90
2018-02-18T22:33:38.647Z,2.90
2018-02-18T22:36:07.001Z,3.20
2018-02-18T22:38:35.550Z,3.90
2018-02-18T22:41:03.870Z,3.60
2018-02-18T22:43:32.243Z,3.00
2018-02-18T22:46:00.583Z,2.70
2018-02-18T22:48:28.945Z,2.90
2018-02-18T22:50:57.234Z,2.80
2018-02-18T22:53:25.586Z,2.90
2018-02-18T22:55:53.888Z,2.80
2018-02-18T22:58:22.220Z,2.70
2018-02-18T23:00:50.517Z,2.90
2018-02-18T23:03:18.842Z,3.80
2018-02-18T23:05:53.031Z,3.10
2018-02-18T23:08:21.336Z,2.80
2018-02-18T23:10:49.660Z,3.00
2018-02-18T23:13:17.990Z,3.10
2018-02-18T23:15:46.364Z,3.80
2018-02-18T23:18:14.710Z,4.00
2018-02-18T23:21:00.738Z,4.20
2018-02-18T23:23:29.040Z,4.30
2018-02-18T23:25:57.348Z,3.50
2018-02-18T23:28:25.800Z,3.40
2018-02-18T23:30:54.279Z,3.00
2018-02-18T23:33:22.840Z,2.80
2018-02-18T23:35:52.002Z,4.00
2018-02-18T23:38:20.290Z,4.00
2018-02-18T23:40:48.586Z,3.50
2018-02-18T23:43:17.675Z,3.30
2018-02-18T23:45:45.975Z,3.30
2018-02-18T23:48:15.071Z,3.30
2018-02-18T23:50:44.174Z,3.20
2018-02-18T23:53:12.420Z,3.20
2018-02-18T23:55:41.493Z,3.70
2018-02-18T23:58:09.822Z,3.70
